createdAt,value
2022-10-05T00:04:31.897Z,4155
2022-10-05T00:09:44.728Z,4168
2022-10-05T00:14:57.341Z,4168
2022-10-05T00:20:09.774Z,4170
2022-10-05T00:25:22.120Z,4170
2022-10-05T00:30:34.479Z,4157
2022-10-05T00:35:46.821Z,4170
2022-10-05T00:40:59.255Z,4168
2022-10-05T00:46:11.433Z,4170
2022-10-05T00:51:23.901Z,4157
2022-10-05T00:56:36.251Z,4170
2022-10-05T01:01:48.644Z,4151
2022-10-05T01:07:00.983Z,4168
2022-10-05T01:12:13.422Z,4153
2022-10-05T01:17:25.514Z,4121
2022-10-05T01:22:38.045Z,4153
2022-10-05T01:27:50.499Z,4166
2022-10-05T01:33:03.170Z,4164
2022-10-05T01:38:15.334Z,4134
2022-10-05T01:43:27.556Z,4127
2022-10-05T01:48:40.033Z,4106
2022-10-05T01:53:52.845Z,4084
2022-10-05T01:59:05.301Z,4160
2022-10-05T02:04:37.198Z,4136
2022-10-05T02:09:30.059Z,4110
2022-10-05T02:14:42.328Z,4160
2022-10-05T02:19:54.472Z,4132
2022-10-05T02:25:07.212Z,4131
2022-10-05T02:30:19.513Z,4142
2022-10-05T02:35:31.738Z,4145
2022-10-05T02:40:44.122Z,4160
2022-10-05T02:45:56.530Z,4119
2022-10-05T02:51:08.666Z,4147
2022-10-05T02:56:21.398Z,4155
2022-10-05T03:01:33.890Z,4123
2022-10-05T03:06:46.615Z,4121
2022-10-05T03:11:59.351Z,4138
2022-10-05T03:17:11.778Z,4136
2022-10-05T03:22:24.158Z,4140
2022-10-05T03:27:36.414Z,4155
2022-10-05T03:32:48.924Z,4121
2022-10-05T03:38:01.219Z,4123
2022-10-05T03:43:13.540Z,4132
2022-10-05T03:48:25.725Z,4155
2022-10-05T03:53:38.134Z,4155
2022-10-05T03:58:50.516Z,4134
2022-10-05T04:04:02.691Z,4118
2022-10-05T04:09:15.264Z,4119
2022-10-05T04:14:27.592Z,4151
2022-10-05T04:19:39.885Z,4134
2022-10-05T04:24:52.037Z,4134
2022-10-05T04:30:04.366Z,4149
2022-10-05T04:35:16.771Z,4108
2022-10-05T04:40:29.084Z,4149
2022-10-05T04:45:41.307Z,4092
2022-10-05T04:50:53.560Z,4088
2022-10-05T04:56:05.891Z,4131
2022-10-05T05:01:18.352Z,4147
2022-10-05T05:06:30.513Z,4106
2022-10-05T05:11:42.818Z,4131
2022-10-05T05:16:55.869Z,4131
2022-10-05T05:22:08.649Z,4121
2022-10-05T05:27:20.610Z,4119
2022-10-05T05:32:33.159Z,4127
2022-10-05T05:37:45.685Z,4097
2022-10-05T05:42:57.888Z,4112
2022-10-05T05:48:10.285Z,4144
2022-10-05T05:53:22.773Z,4121
2022-10-05T05:58:35.158Z,4080
2022-10-05T06:03:47.609Z,4129
2022-10-05T06:09:00.051Z,4101
2022-10-05T06:14:12.325Z,4105
2022-10-05T06:19:24.877Z,4127
2022-10-05T06:24:37.223Z,4084
2022-10-05T06:29:49.518Z,4049
2022-10-05T06:35:02.022Z,4071
2022-10-05T06:40:14.880Z,4123
2022-10-05T06:45:26.996Z,4095
2022-10-05T06:50:39.402Z,4142
2022-10-05T06:55:51.682Z,4119
2022-10-05T07:01:03.914Z,4095
2022-10-05T07:06:16.088Z,4118
2022-10-05T07:11:28.632Z,4142
2022-10-05T07:16:41.006Z,4019
2022-10-05T07:21:53.348Z,4067
2022-10-05T07:27:05.789Z,4118
2022-10-05T07:32:18.138Z,4056
2022-10-05T07:37:30.569Z,4145
2022-10-05T07:42:49.081Z,4069
2022-10-05T07:47:55.595Z,4149
2022-10-05T07:53:07.925Z,4114
2022-10-05T07:58:20.255Z,4153
2022-10-05T08:03:32.673Z,4134
2022-10-05T08:08:45.125Z,4095
2022-10-05T08:13:57.341Z,4132
2022-10-05T08:19:09.734Z,4132
2022-10-05T08:24:22.080Z,4140
2022-10-05T08:29:34.537Z,4164
2022-10-05T08:34:46.899Z,4129
2022-10-05T08:39:59.226Z,4147
2022-10-05T08:45:11.704Z,4129
2022-10-05T08:50:23.996Z,4168
2022-10-05T08:55:36.311Z,4173
2022-10-05T09:00:49.081Z,4086
2022-10-05T09:06:01.271Z,4155
2022-10-05T09:11:13.733Z,4177
2022-10-05T09:16:26.134Z,4110
2022-10-05T09:21:38.787Z,4177
2022-10-05T09:26:51.002Z,4175
2022-10-05T09:32:03.305Z,4181
2022-10-05T09:37:15.834Z,4185
2022-10-05T09:42:28.355Z,4168
2022-10-05T09:47:40.718Z,4157
2022-10-05T09:52:53.010Z,4192
2022-10-05T09:58:05.366Z,4192
2022-10-05T10:03:17.845Z,4196
2022-10-05T10:08:30.084Z,4194
2022-10-05T10:13:42.497Z,4186
2022-10-05T10:18:55.164Z,4188
2022-10-05T10:24:07.640Z,4186
2022-10-05T10:29:19.845Z,4199
2022-10-05T10:34:32.251Z,4192
2022-10-05T10:39:44.611Z,4203
2022-10-05T10:44:57.039Z,4205
2022-10-05T10:50:09.598Z,4185
2022-10-05T10:55:22.417Z,4203
2022-10-05T11:00:34.715Z,4214
2022-10-05T11:05:48.658Z,4211
2022-10-05T11:10:59.536Z,4218
2022-10-05T11:16:14.546Z,4216
2022-10-05T11:21:24.673Z,4218
2022-10-05T11:26:36.863Z,4224
2022-10-05T11:31:49.351Z,4216
2022-10-05T11:37:01.603Z,4216
2022-10-05T11:42:14.058Z,4216
2022-10-05T11:47:26.121Z,4198
2022-10-05T11:52:38.365Z,4205
2022-10-05T11:57:50.804Z,4220
2022-10-05T12:03:03.345Z,4203
2022-10-05T12:08:15.786Z,4196
2022-10-05T12:13:28.189Z,4168
2022-10-05T12:18:40.628Z,4116
2022-10-05T12:23:53.401Z,4231
2022-10-05T12:29:05.743Z,4237
2022-10-05T12:34:18.318Z,4233
2022-10-05T12:39:30.921Z,4229
2022-10-05T12:44:43.318Z,4225
2022-10-05T12:49:55.634Z,4227
2022-10-05T12:55:08.107Z,4229
2022-10-05T13:00:23.084Z,4248
2022-10-05T13:05:33.106Z,4231
2022-10-05T13:10:45.728Z,4214
2022-10-05T13:15:58.143Z,4224
2022-10-05T13:21:10.282Z,4229
2022-10-05T13:26:22.865Z,4253
2022-10-05T13:31:35.212Z,4231
2022-10-05T13:36:47.381Z,4250
2022-10-05T13:41:59.969Z,4212
2022-10-05T13:47:12.445Z,4240
2022-10-05T13:52:24.677Z,4203
2022-10-05T13:57:37.042Z,4240
2022-10-05T14:02:49.389Z,4251
2022-10-05T14:08:01.974Z,4251
2022-10-05T14:13:14.515Z,4201
2022-10-05T14:18:26.793Z,4240
2022-10-05T14:23:39.127Z,4218
2022-10-05T14:28:51.297Z,4211
2022-10-05T14:34:03.642Z,4229
2022-10-05T14:39:16.052Z,4257
2022-10-05T14:44:28.683Z,4246
2022-10-05T14:49:41.043Z,4229
2022-10-05T14:54:53.201Z,4246
2022-10-05T15:00:05.429Z,4233
2022-10-05T15:05:17.922Z,4246
2022-10-05T15:10:30.448Z,4227
2022-10-05T15:15:42.591Z,4225
2022-10-05T15:20:55.106Z,4209
2022-10-05T15:26:07.739Z,4209
2022-10-05T15:31:20.233Z,4242
2022-10-05T15:36:32.462Z,4225
2022-10-05T15:41:44.630Z,4246
2022-10-05T15:46:58.535Z,4248
2022-10-05T15:52:10.778Z,4237
2022-10-05T15:57:22.987Z,4253
2022-10-05T16:02:35.117Z,4248
2022-10-05T16:07:47.532Z,4235
2022-10-05T16:12:59.843Z,4237
2022-10-05T16:18:12.050Z,4233
2022-10-05T16:23:24.301Z,4235
2022-10-05T16:28:36.475Z,4225
2022-10-05T16:33:48.353Z,4224
2022-10-05T16:39:00.317Z,4211
2022-10-05T16:44:12.556Z,4229
2022-10-05T16:49:24.811Z,4205
2022-10-05T16:54:36.903Z,4220
2022-10-05T16:59:49.020Z,4212
2022-10-05T17:05:01.259Z,4222
2022-10-05T17:10:13.684Z,4199
2022-10-05T17:15:26.039Z,4220
2022-10-05T17:20:42.354Z,4211
2022-10-05T17:25:51.066Z,4220
2022-10-05T17:31:03.382Z,4220
2022-10-05T17:36:15.830Z,4203
2022-10-05T17:41:28.241Z,4181
2022-10-05T17:46:40.406Z,4220
2022-10-05T17:51:52.853Z,4177
2022-10-05T17:57:05.362Z,4185
2022-10-05T18:02:18.049Z,4205
2022-10-05T18:07:30.296Z,4214
2022-10-05T18:12:42.560Z,4199
2022-10-05T18:17:55.904Z,4192
2022-10-05T18:23:08.164Z,4214
2022-10-05T18:28:20.742Z,4203
2022-10-05T18:33:32.897Z,4212
2022-10-05T18:38:45.318Z,4207
2022-10-05T18:43:57.315Z,4212
2022-10-05T18:49:09.556Z,4186
2022-10-05T18:54:21.923Z,4199
2022-10-05T18:59:34.088Z,4198
2022-10-05T19:04:46.639Z,4175
2022-10-05T19:09:59.085Z,4185
2022-10-05T19:15:11.122Z,4196
2022-10-05T19:20:23.690Z,4207
2022-10-05T19:25:35.804Z,4158
2022-10-05T19:30:47.977Z,4192
2022-10-05T19:36:00.143Z,4201
2022-10-05T19:41:12.409Z,4201
2022-10-05T19:46:24.631Z,4199
2022-10-05T19:51:36.811Z,4198
2022-10-05T19:56:49.343Z,4153
2022-10-05T20:02:01.824Z,4166
2022-10-05T20:07:14.009Z,4186
2022-10-05T20:12:26.756Z,4186
2022-10-05T20:17:39.148Z,4185
2022-10-05T20:22:51.428Z,4160
2022-10-05T20:28:03.778Z,4166
2022-10-05T20:33:16.274Z,4196
2022-10-05T20:38:28.696Z,4173
2022-10-05T20:43:40.695Z,4196
2022-10-05T20:48:53.091Z,4192
2022-10-05T20:54:05.275Z,4183
2022-10-05T20:59:17.656Z,4171
2022-10-05T21:04:32.771Z,4158
2022-10-05T21:09:42.383Z,4170
2022-10-05T21:14:54.835Z,4196
2022-10-05T21:20:07.259Z,4177
2022-10-05T21:25:19.645Z,4171
2022-10-05T21:30:32.011Z,4144
2022-10-05T21:35:44.302Z,4153
2022-10-05T21:40:56.745Z,4181
2022-10-05T21:46:09.108Z,4183
2022-10-05T21:51:21.371Z,4183
2022-10-05T21:56:33.557Z,4153
2022-10-05T22:01:45.961Z,4173
2022-10-05T22:06:58.190Z,4157
2022-10-05T22:12:10.556Z,4157
2022-10-05T22:17:22.966Z,4155
2022-10-05T22:22:35.534Z,4151
2022-10-05T22:27:47.856Z,4160
2022-10-05T22:33:00.049Z,4166
2022-10-05T22:38:12.186Z,4196
2022-10-05T22:43:24.618Z,4166
2022-10-05T22:48:37.075Z,4179
2022-10-05T22:53:49.503Z,4194
2022-10-05T22:59:01.904Z,4183
2022-10-05T23:04:14.164Z,4183
2022-10-05T23:09:26.534Z,4144
2022-10-05T23:14:39.076Z,4194
2022-10-05T23:19:51.427Z,4170
2022-10-05T23:25:04.007Z,4157
2022-10-05T23:30:16.242Z,4194
2022-10-05T23:35:28.389Z,4181
2022-10-05T23:40:40.948Z,4168
2022-10-05T23:45:53.429Z,4179
2022-10-05T23:51:05.489Z,4166
2022-10-05T23:56:17.800Z,4162
